Time;durP1;ratioP1;P1;durP2;ratioP2;P2;SDS_P1;SDS_P2;PMS_P1;PMS_P2;Temp;Humidity;BMP_temperature;BMP_pressure;BME280_temperature;BME280_humidity;BME280_pressure;Samples;Min_cycle;Max_cycle;Signal;HPM_P1;HPM_P2
2022/01/31 00:00:56;;;;;;;17.98;6.18;;;2.20;99.90;;;;;;5091772;28;20199;-62
2022/01/31 00:03:22;;;;;;;15.93;7.45;;;2.20;99.90;;;;;;5092490;28;20659;-63
2022/01/31 00:05:48;;;;;;;23.83;8.05;;;2.30;99.90;;;;;;5093219;28;20214;-63
2022/01/31 00:08:20;;;;;;;21.38;8.00;;;2.30;99.90;;;;;;5092171;28;20246;-62
2022/01/31 00:10:46;;;;;;;37.25;13.95;;;2.30;99.90;;;;;;5090050;28;20626;-63
2022/01/31 00:13:18;;;;;;;33.83;13.55;;;2.30;99.90;;;;;;5092639;28;20208;-62
2022/01/31 00:15:47;;;;;;;33.08;14.23;;;2.30;99.90;;;;;;5092962;28;20180;-62
2022/01/31 00:18:12;;;;;;;41.28;14.18;;;2.30;99.90;;;;;;5092483;28;20183;-63
2022/01/31 00:20:39;;;;;;;21.50;10.15;;;2.30;99.90;;;;;;5089820;28;20176;-62
2022/01/31 00:23:04;;;;;;;25.02;10.27;;;2.30;99.90;;;;;;5091981;28;20617;-62
2022/01/31 00:25:30;;;;;;;24.90;9.63;;;2.30;99.90;;;;;;5092506;28;20187;-62
2022/01/31 00:27:56;;;;;;;25.23;9.27;;;2.30;99.90;;;;;;5091159;28;20654;-62
2022/01/31 00:30:21;;;;;;;20.75;8.68;;;2.30;99.90;;;;;;5092413;28;20216;-62
2022/01/31 00:32:48;;;;;;;12.13;4.63;;;2.30;99.90;;;;;;5092388;28;20602;-62
2022/01/31 00:35:14;;;;;;;14.57;3.80;;;2.30;99.90;;;;;;5092444;28;20624;-62
2022/01/31 00:37:40;;;;;;;8.17;3.03;;;2.30;99.90;;;;;;5092417;28;20237;-63
2022/01/31 00:40:07;;;;;;;11.57;3.70;;;2.20;99.90;;;;;;5092135;28;20183;-63
2022/01/31 00:42:33;;;;;;;8.37;3.33;;;2.20;99.90;;;;;;5092434;28;20641;-63
2022/01/31 00:45:46;;;;;;;10.57;3.20;;;2.20;99.90;;;;;;5090856;28;20183;-63
2022/01/31 00:47:49;;;;;;;9.67;3.27;;;2.20;99.90;;;;;;5084663;28;20278;-63
2022/01/31 00:50:17;;;;;;;13.50;3.50;;;2.20;99.90;;;;;;5092294;28;20587;-63
2022/01/31 00:52:44;;;;;;;10.33;3.27;;;2.30;99.90;;;;;;5092049;28;20183;-62
2022/01/31 00:55:11;;;;;;;11.80;3.20;;;2.20;99.90;;;;;;5091775;28;20192;-63
2022/01/31 00:57:37;;;;;;;7.63;3.23;;;2.30;99.90;;;;;;5092185;28;20191;-63
2022/01/31 01:00:04;;;;;;;11.70;4.00;;;2.30;99.90;;;;;;5091656;28;20616;-62
2022/01/31 01:02:30;;;;;;;7.88;3.08;;;2.40;99.90;;;;;;5091890;28;20528;-63
2022/01/31 01:04:56;;;;;;;12.95;3.35;;;2.40;99.90;;;;;;5085467;28;20173;-63
2022/01/31 01:07:22;;;;;;;8.48;2.95;;;2.50;99.90;;;;;;5088771;28;20219;-64
2022/01/31 01:09:48;;;;;;;10.70;3.20;;;2.50;99.90;;;;;;5091960;28;20204;-64
2022/01/31 01:12:16;;;;;;;7.82;2.95;;;2.60;99.90;;;;;;5091983;28;20658;-63
2022/01/31 01:14:42;;;;;;;6.50;2.90;;;2.60;99.90;;;;;;5091826;28;20195;-64
2022/01/31 01:17:09;;;;;;;11.50;3.27;;;2.60;99.90;;;;;;5090140;28;20168;-63
2022/01/31 01:19:34;;;;;;;9.30;3.07;;;2.60;99.90;;;;;;5090495;28;20184;-63
2022/01/31 01:22:00;;;;;;;5.73;2.43;;;2.60;99.90;;;;;;5091738;28;20168;-64
2022/01/31 01:24:26;;;;;;;8.07;3.13;;;2.60;99.90;;;;;;5092805;28;20183;-63
2022/01/31 01:26:53;;;;;;;7.37;3.03;;;2.50;99.90;;;;;;5095639;28;20225;-64
2022/01/31 01:29:19;;;;;;;10.63;3.20;;;2.60;99.90;;;;;;5095226;28;20207;-63
2022/01/31 01:31:46;;;;;;;13.63;3.22;;;2.60;99.90;;;;;;5095408;28;20255;-65
2022/01/31 01:34:12;;;;;;;9.88;3.38;;;2.70;99.90;;;;;;5095492;28;20207;-63
2022/01/31 01:36:38;;;;;;;10.93;3.58;;;2.70;99.90;;;;;;5095739;28;20198;-64
2022/01/31 01:39:05;;;;;;;8.75;3.50;;;2.70;99.90;;;;;;5095284;28;20180;-63
2022/01/31 01:41:30;;;;;;;11.52;3.65;;;2.70;99.90;;;;;;5095062;28;20172;-64
2022/01/31 01:43:56;;;;;;;9.25;3.85;;;2.80;99.90;;;;;;5095601;28;20180;-63
2022/01/31 01:46:21;;;;;;;8.60;3.08;;;2.80;99.90;;;;;;5095340;28;20569;-63
2022/01/31 01:48:47;;;;;;;10.70;3.30;;;2.80;99.90;;;;;;5095415;28;20184;-64
2022/01/31 01:51:13;;;;;;;6.88;2.70;;;2.80;99.90;;;;;;5095418;28;20280;-64
2022/01/31 01:53:38;;;;;;;14.20;3.88;;;2.70;99.90;;;;;;5095363;28;20180;-64
2022/01/31 01:56:04;;;;;;;8.63;3.27;;;2.60;99.90;;;;;;5093983;28;20210;-64
2022/01/31 01:58:38;;;;;;;8.05;3.05;;;2.50;99.90;;;;;;5095482;28;20396;-64
2022/01/31 02:01:04;;;;;;;11.53;3.30;;;2.40;99.90;;;;;;5094842;28;20756;-63
2022/01/31 02:03:32;;;;;;;5.17;2.87;;;2.40;99.90;;;;;;5095155;28;20180;-63
2022/01/31 02:05:58;;;;;;;9.57;3.33;;;2.30;99.90;;;;;;5095316;28;20176;-63
2022/01/31 02:08:25;;;;;;;16.38;4.07;;;2.30;99.90;;;;;;5094993;28;20224;-63
2022/01/31 02:10:51;;;;;;;7.73;2.93;;;2.30;99.90;;;;;;5094731;28;20223;-64
2022/01/31 02:13:17;;;;;;;9.67;2.87;;;2.20;99.90;;;;;;5095152;28;20180;-64
2022/01/31 02:15:49;;;;;;;11.23;3.43;;;2.20;99.90;;;;;;5094861;28;20627;-64
2022/01/31 02:18:17;;;;;;;13.63;3.43;;;2.20;99.90;;;;;;5095177;28;20176;-64
2022/01/31 02:20:44;;;;;;;8.63;3.20;;;2.20;99.90;;;;;;5094863;28;20222;-64
2022/01/31 02:23:11;;;;;;;11.87;3.63;;;2.20;99.90;;;;;;5094827;28;20276;-64
2022/01/31 02:26:03;;;;;;;5.95;3.08;;;2.20;99.90;;;;;;5094911;28;20180;-64
2022/01/31 02:28:33;;;;;;;10.43;3.30;;;2.20;99.90;;;;;;5094930;28;20187;-64
2022/01/31 02:31:00;;;;;;;8.35;3.53;;;2.20;99.90;;;;;;5094615;28;20223;-64
2022/01/31 02:33:26;;;;;;;7.83;3.20;;;2.10;99.90;;;;;;5093413;28;20180;-64
2022/01/31 02:35:54;;;;;;;8.83;3.30;;;2.10;99.90;;;;;;5093812;28;20207;-64
2022/01/31 02:38:19;;;;;;;11.80;3.03;;;2.10;99.90;;;;;;5082473;28;20172;-63
2022/01/31 02:40:45;;;;;;;9.67;3.47;;;2.10;99.90;;;;;;5094527;28;20615;-65
2022/01/31 02:43:17;;;;;;;8.60;3.13;;;2.10;99.90;;;;;;5094192;28;20176;-64
2022/01/31 02:45:43;;;;;;;17.92;3.28;;;2.10;99.90;;;;;;5094222;28;20677;-63
2022/01/31 02:48:08;;;;;;;12.40;3.23;;;2.20;99.90;;;;;;5094178;28;20184;-63
2022/01/31 02:50:34;;;;;;;8.37;3.00;;;2.20;99.90;;;;;;5093612;28;20211;-63
2022/01/31 02:55:45;;;;;;;9.00;2.92;;;2.30;99.90;;;;;;5093800;28;20190;-64
2022/01/31 02:58:11;;;;;;;9.10;3.40;;;2.30;99.90;;;;;;5093685;28;20172;-63
2022/01/31 03:00:38;;;;;;;5.67;2.57;;;2.30;99.90;;;;;;5093723;28;20199;-64
2022/01/31 03:03:05;;;;;;;6.43;2.70;;;2.40;99.90;;;;;;5093698;28;20538;-64
2022/01/31 03:05:31;;;;;;;8.60;3.17;;;2.40;99.90;;;;;;5094241;28;20176;-63
2022/01/31 03:07:57;;;;;;;6.20;3.23;;;2.40;99.90;;;;;;5093783;28;20224;-64
2022/01/31 03:10:23;;;;;;;15.23;3.50;;;2.50;99.90;;;;;;5092718;28;20621;-64
2022/01/31 03:12:48;;;;;;;9.80;3.17;;;2.50;99.90;;;;;;5093988;28;20188;-64
2022/01/31 03:15:14;;;;;;;8.57;2.63;;;2.50;99.90;;;;;;5093905;28;20658;-64
2022/01/31 03:17:43;;;;;;;9.70;2.73;;;2.60;99.90;;;;;;5093671;28;20541;-64
2022/01/31 03:20:09;;;;;;;13.82;2.65;;;2.60;99.90;;;;;;5093904;28;20236;-63
2022/01/31 03:22:35;;;;;;;8.20;2.55;;;2.70;99.90;;;;;;5093690;28;20172;-63
2022/01/31 03:25:00;;;;;;;8.90;3.20;;;2.70;99.90;;;;;;5092268;28;20192;-63
2022/01/31 03:27:26;;;;;;;7.55;2.47;;;2.80;99.90;;;;;;5091688;28;20309;-64
2022/01/31 03:29:52;;;;;;;9.10;2.97;;;2.90;99.90;;;;;;5092222;28;20212;-64
2022/01/31 03:32:17;;;;;;;7.82;2.30;;;2.90;99.90;;;;;;5093289;28;20188;-64
2022/01/31 03:34:43;;;;;;;8.90;2.03;;;3.10;99.90;;;;;;5093515;28;20237;-64
2022/01/31 03:37:08;;;;;;;10.90;2.55;;;3.10;99.90;;;;;;5093473;28;20168;-64
2022/01/31 03:39:34;;;;;;;8.23;2.80;;;3.20;99.90;;;;;;5093374;28;20183;-64
2022/01/31 03:41:59;;;;;;;10.35;2.80;;;3.30;99.90;;;;;;5093372;28;20188;-64
2022/01/31 03:44:25;;;;;;;8.20;2.33;;;3.30;99.90;;;;;;5093711;28;20278;-64
2022/01/31 03:46:51;;;;;;;7.20;2.28;;;3.40;99.90;;;;;;5092431;28;20592;-64
2022/01/31 03:49:16;;;;;;;8.88;2.50;;;3.40;99.90;;;;;;5093275;28;20592;-63
2022/01/31 03:51:42;;;;;;;6.90;2.53;;;3.40;99.90;;;;;;5092868;28;20183;-63
2022/01/31 03:54:08;;;;;;;5.93;2.60;;;3.50;99.90;;;;;;5093269;28;20183;-63
2022/01/31 03:56:35;;;;;;;12.30;2.60;;;3.50;99.90;;;;;;5093185;28;20184;-63
2022/01/31 03:59:01;;;;;;;11.68;2.97;;;3.50;99.90;;;;;;5092665;28;20187;-63
2022/01/31 04:01:26;;;;;;;7.68;2.70;;;3.50;99.90;;;;;;5093043;28;20176;-63
2022/01/31 04:03:52;;;;;;;8.02;2.13;;;3.50;99.90;;;;;;5092843;28;20180;-64
2022/01/31 04:06:18;;;;;;;8.55;2.45;;;3.60;99.90;;;;;;5092855;28;20525;-63
2022/01/31 04:08:44;;;;;;;5.53;2.22;;;3.60;99.90;;;;;;5092860;28;20228;-63
2022/01/31 04:11:10;;;;;;;8.45;2.70;;;3.60;99.90;;;;;;5091916;28;20890;-63
2022/01/31 04:13:37;;;;;;;6.57;2.30;;;3.70;99.90;;;;;;5092620;28;20267;-64
2022/01/31 04:16:02;;;;;;;13.23;2.75;;;3.70;99.90;;;;;;5092882;28;20203;-63
2022/01/31 04:18:28;;;;;;;8.13;2.60;;;3.70;99.90;;;;;;5092514;28;20277;-63
2022/01/31 04:20:54;;;;;;;9.27;2.55;;;3.80;99.90;;;;;;5092563;28;20183;-63
2022/01/31 04:23:22;;;;;;;7.97;2.53;;;3.90;99.90;;;;;;5092619;28;20204;-63
2022/01/31 04:30:55;;;;;;;6.28;2.30;;;4.00;99.90;;;;;;5092316;28;20215;-63
2022/01/31 04:33:22;;;;;;;7.30;2.10;;;4.10;99.90;;;;;;5092526;28;20176;-63
2022/01/31 04:35:48;;;;;;;8.13;1.95;;;4.10;99.90;;;;;;5092490;28;20274;-63
2022/01/31 04:38:14;;;;;;;7.53;2.60;;;4.10;99.90;;;;;;5092285;28;20267;-64
2022/01/31 04:40:39;;;;;;;7.63;2.05;;;4.10;99.90;;;;;;5092319;28;20195;-64
2022/01/31 04:43:05;;;;;;;7.22;2.22;;;4.10;99.90;;;;;;5092393;28;20279;-62
2022/01/31 04:45:31;;;;;;;7.82;2.00;;;4.20;99.90;;;;;;5092398;28;20190;-62
2022/01/31 04:47:56;;;;;;;8.25;1.90;;;4.20;99.90;;;;;;5092188;28;20346;-63
2022/01/31 04:50:22;;;;;;;8.63;2.25;;;4.20;99.90;;;;;;5091926;28;20616;-64
2022/01/31 04:52:47;;;;;;;5.93;2.40;;;4.30;99.90;;;;;;5091624;28;20180;-64
2022/01/31 04:55:13;;;;;;;7.75;2.20;;;4.30;99.90;;;;;;5090502;28;20179;-64
2022/01/31 04:57:39;;;;;;;10.27;2.20;;;4.30;99.90;;;;;;5091754;28;20172;-63
2022/01/31 05:00:07;;;;;;;6.85;2.45;;;4.20;99.90;;;;;;5091829;28;20306;-63
2022/01/31 05:02:33;;;;;;;7.90;2.55;;;4.20;99.90;;;;;;5091365;28;20218;-64
2022/01/31 05:04:59;;;;;;;8.45;2.70;;;4.10;99.90;;;;;;5092141;28;20176;-61
2022/01/31 05:07:24;;;;;;;7.35;2.03;;;4.10;99.90;;;;;;5091147;28;20565;-65
2022/01/31 05:09:50;;;;;;;9.82;2.60;;;4.10;99.90;;;;;;5091445;28;20199;-63
2022/01/31 05:12:15;;;;;;;7.72;2.03;;;4.10;99.90;;;;;;5092318;28;20176;-62
2022/01/31 05:14:41;;;;;;;11.38;2.10;;;4.20;99.90;;;;;;5091645;28;20178;-67
2022/01/31 05:17:07;;;;;;;10.32;2.45;;;4.20;99.90;;;;;;5092135;28;20259;-64
2022/01/31 05:19:32;;;;;;;6.20;2.28;;;4.30;99.90;;;;;;5091796;28;20259;-62
2022/01/31 05:21:58;;;;;;;11.85;1.98;;;4.30;99.90;;;;;;5091659;28;20632;-67
2022/01/31 05:24:23;;;;;;;4.20;2.13;;;4.30;99.90;;;;;;5091613;28;20188;-66
2022/01/31 05:26:51;;;;;;;14.75;2.92;;;4.40;99.90;;;;;;5092110;28;20267;-66
2022/01/31 05:29:20;;;;;;;8.63;2.40;;;4.40;99.90;;;;;;5091382;28;20172;-65
2022/01/31 05:31:46;;;;;;;9.98;2.95;;;4.40;99.90;;;;;;5091638;28;20184;-66
2022/01/31 05:34:12;;;;;;;3.30;2.10;;;4.50;99.90;;;;;;5091785;28;20203;-62
2022/01/31 05:36:42;;;;;;;11.13;2.75;;;4.50;99.90;;;;;;5091124;28;20652;-64
2022/01/31 05:39:08;;;;;;;8.00;2.50;;;4.50;99.90;;;;;;5091756;28;20203;-64
2022/01/31 05:41:34;;;;;;;7.47;2.28;;;4.60;99.90;;;;;;5092265;28;20208;-64
2022/01/31 05:44:00;;;;;;;8.50;2.10;;;4.60;99.90;;;;;;5091924;28;20179;-63
2022/01/31 05:46:25;;;;;;;12.23;2.33;;;4.60;99.90;;;;;;5092117;28;20250;-64
2022/01/31 05:48:51;;;;;;;5.80;2.60;;;4.70;99.90;;;;;;5091971;28;20255;-64
2022/01/31 05:51:22;;;;;;;9.55;3.00;;;4.70;99.90;;;;;;5091951;28;20207;-64
2022/01/31 05:53:50;;;;;;;6.75;2.20;;;4.80;99.90;;;;;;5092114;28;20224;-64
2022/01/31 05:56:17;;;;;;;10.55;2.30;;;4.80;99.90;;;;;;5092018;28;20241;-64
2022/01/31 05:58:43;;;;;;;8.13;3.00;;;4.80;99.90;;;;;;5091995;28;20624;-64
2022/01/31 06:01:09;;;;;;;8.75;2.38;;;4.70;99.90;;;;;;5091903;28;20172;-64
2022/01/31 06:03:34;;;;;;;7.35;2.83;;;4.80;99.90;;;;;;5091997;28;20256;-64
2022/01/31 06:06:01;;;;;;;8.45;2.60;;;4.80;99.90;;;;;;5091795;28;20180;-65
2022/01/31 06:08:26;;;;;;;10.57;2.67;;;4.80;99.90;;;;;;5091688;28;20699;-63
2022/01/31 06:10:52;;;;;;;12.30;3.28;;;4.70;99.90;;;;;;5094434;28;20267;-63
2022/01/31 06:13:24;;;;;;;7.95;2.22;;;4.70;99.90;;;;;;5095406;28;20164;-63
2022/01/31 06:15:50;;;;;;;8.20;2.80;;;4.70;99.90;;;;;;5095432;28;20188;-64
2022/01/31 06:18:16;;;;;;;11.05;2.83;;;4.60;99.90;;;;;;5095546;28;20267;-64
2022/01/31 06:20:44;;;;;;;9.43;2.47;;;4.60;99.90;;;;;;5095371;28;20263;-64
2022/01/31 06:23:10;;;;;;;13.68;2.78;;;4.50;99.90;;;;;;5095128;28;20191;-63
2022/01/31 06:25:36;;;;;;;11.40;2.60;;;4.50;99.90;;;;;;5094961;28;20176;-64
2022/01/31 06:28:04;;;;;;;11.88;3.25;;;4.40;99.90;;;;;;5095078;28;20199;-64
2022/01/31 06:30:29;;;;;;;8.77;3.03;;;4.30;99.90;;;;;;5092027;28;20226;-64
2022/01/31 06:32:55;;;;;;;6.32;3.00;;;4.20;99.90;;;;;;5093420;28;20176;-63
2022/01/31 06:35:21;;;;;;;7.82;3.28;;;4.10;99.90;;;;;;5094928;28;20194;-63
2022/01/31 06:37:46;;;;;;;13.35;3.53;;;4.10;99.90;;;;;;5094972;28;20176;-64
2022/01/31 06:40:12;;;;;;;15.18;3.58;;;4.00;99.90;;;;;;5094915;28;20236;-63
2022/01/31 06:42:38;;;;;;;12.30;3.92;;;4.00;99.90;;;;;;5095058;28;20208;-63
2022/01/31 06:45:04;;;;;;;10.13;2.83;;;3.90;99.90;;;;;;5094706;28;20258;-62
2022/01/31 06:47:30;;;;;;;7.95;3.28;;;3.80;99.90;;;;;;5094789;28;20164;-62
2022/01/31 06:49:56;;;;;;;10.05;3.13;;;3.80;99.90;;;;;;5094436;28;20203;-62
2022/01/31 06:52:23;;;;;;;9.07;3.13;;;3.80;99.90;;;;;;5094799;28;20555;-62
2022/01/31 06:54:50;;;;;;;6.05;3.00;;;3.70;99.90;;;;;;5094429;28;20175;-63
2022/01/31 06:57:17;;;;;;;9.85;3.15;;;3.70;99.90;;;;;;5094252;28;20650;-63
2022/01/31 06:59:42;;;;;;;10.67;2.90;;;3.70;99.90;;;;;;5094365;28;20176;-63
2022/01/31 07:02:08;;;;;;;8.65;3.15;;;3.70;99.90;;;;;;5094313;28;20251;-63
2022/01/31 07:04:33;;;;;;;8.18;3.17;;;3.70;99.90;;;;;;5094449;28;20184;-63
2022/01/31 07:06:59;;;;;;;7.53;3.22;;;3.70;99.90;;;;;;5093921;28;20223;-64
2022/01/31 07:09:26;;;;;;;9.98;4.07;;;3.70;99.90;;;;;;5094346;28;20287;-64
2022/01/31 07:11:56;;;;;;;8.60;3.55;;;3.70;99.90;;;;;;5094276;28;20590;-64
2022/01/31 07:14:31;;;;;;;9.95;3.47;;;3.70;99.90;;;;;;5094306;28;20234;-63
2022/01/31 07:17:01;;;;;;;19.95;5.53;;;3.70;99.90;;;;;;5094246;28;20647;-64
2022/01/31 07:19:29;;;;;;;9.82;3.63;;;3.60;99.90;;;;;;5094108;28;20650;-64
2022/01/31 07:21:55;;;;;;;5.05;3.40;;;3.60;99.90;;;;;;5093947;28;20522;-64
2022/01/31 07:24:42;;;;;;;8.48;3.72;;;3.60;99.90;;;;;;5094174;28;20237;-64
2022/01/31 07:27:08;;;;;;;9.70;3.30;;;3.60;99.90;;;;;;5093906;28;20202;-63
2022/01/31 07:29:33;;;;;;;7.93;3.30;;;3.50;99.90;;;;;;5093763;28;20715;-63
2022/01/31 07:32:00;;;;;;;9.65;3.67;;;3.50;99.90;;;;;;5092526;28;20206;-64
2022/01/31 07:34:26;;;;;;;10.05;3.83;;;3.50;99.90;;;;;;5075868;28;20249;-64
2022/01/31 07:36:53;;;;;;;9.88;3.25;;;3.50;99.90;;;;;;5093986;28;20655;-62
2022/01/31 07:39:19;;;;;;;7.68;3.40;;;3.50;99.90;;;;;;5093779;28;20207;-62
2022/01/31 07:41:47;;;;;;;5.70;3.30;;;3.50;99.90;;;;;;5093631;28;20267;-63
2022/01/31 07:44:13;;;;;;;9.52;3.72;;;3.60;99.90;;;;;;5092200;28;20180;-62
2022/01/31 07:46:39;;;;;;;7.03;4.18;;;3.60;99.90;;;;;;5093639;28;20244;-62
2022/01/31 07:49:06;;;;;;;9.45;4.70;;;3.60;99.90;;;;;;5093389;28;20183;-62
2022/01/31 07:51:33;;;;;;;8.07;4.07;;;3.60;99.90;;;;;;5092111;28;20227;-62
2022/01/31 07:53:59;;;;;;;4.13;2.90;;;3.60;99.90;;;;;;5093439;28;20643;-62
2022/01/31 07:56:25;;;;;;;6.05;3.33;;;3.70;99.90;;;;;;5093572;28;20540;-63
2022/01/31 07:58:51;;;;;;;6.95;3.55;;;3.70;99.90;;;;;;5093228;28;20168;-62
2022/01/31 08:01:16;;;;;;;3.28;2.70;;;3.70;99.90;;;;;;5092151;28;20176;-62
2022/01/31 08:03:42;;;;;;;7.13;3.30;;;3.70;99.90;;;;;;5093388;28;20176;-62
2022/01/31 08:06:08;;;;;;;6.85;3.03;;;3.70;99.90;;;;;;5093202;28;20176;-62
2022/01/31 08:08:34;;;;;;;4.55;2.80;;;3.70;99.90;;;;;;5092932;28;20224;-62
2022/01/31 08:11:03;;;;;;;7.55;3.10;;;3.70;99.90;;;;;;5092962;28;20223;-63
2022/01/31 08:13:29;;;;;;;4.78;2.90;;;3.80;99.90;;;;;;5093117;28;20651;-62
2022/01/31 08:18:27;;;;;;;7.72;3.45;;;3.80;99.90;;;;;;5093251;28;20260;-62
2022/01/31 08:20:53;;;;;;;3.95;2.65;;;3.80;99.90;;;;;;5092920;28;20267;-63
2022/01/31 08:23:18;;;;;;;5.90;2.88;;;3.80;99.90;;;;;;5093077;28;20701;-62
2022/01/31 08:25:48;;;;;;;4.50;2.85;;;3.80;99.90;;;;;;5093178;28;20642;-62
2022/01/31 08:28:14;;;;;;;7.25;2.50;;;3.80;99.90;;;;;;5091532;28;20221;-62
2022/01/31 08:30:49;;;;;;;6.80;2.53;;;3.80;99.90;;;;;;5092828;28;20486;-62
2022/01/31 08:33:32;;;;;;;5.03;2.75;;;3.90;99.90;;;;;;5091155;28;20232;-62
2022/01/31 08:35:58;;;;;;;9.88;4.50;;;3.90;99.90;;;;;;5092696;28;20176;-62
2022/01/31 08:38:23;;;;;;;5.55;2.53;;;3.90;99.90;;;;;;5092876;28;20184;-63
2022/01/31 08:40:49;;;;;;;3.97;2.60;;;3.90;99.90;;;;;;5092666;28;20183;-63
2022/01/31 08:43:17;;;;;;;4.15;2.60;;;4.00;99.90;;;;;;5092656;28;20183;-62
2022/01/31 08:45:43;;;;;;;6.22;3.85;;;4.00;99.90;;;;;;5092640;28;20187;-62
2022/01/31 08:48:08;;;;;;;6.15;2.60;;;4.10;99.90;;;;;;5092618;28;20191;-62
2022/01/31 08:50:35;;;;;;;5.63;2.40;;;4.10;99.90;;;;;;5092486;28;20298;-62
2022/01/31 08:53:01;;;;;;;4.88;2.50;;;4.20;99.90;;;;;;5091242;28;20175;-62
2022/01/31 08:55:27;;;;;;;6.00;2.40;;;4.20;99.90;;;;;;5092614;28;20543;-62
2022/01/31 08:57:53;;;;;;;4.45;2.40;;;4.30;99.90;;;;;;5092367;28;20204;-62
2022/01/31 09:00:20;;;;;;;4.90;2.08;;;4.40;99.90;;;;;;5092535;28;20180;-62
2022/01/31 09:03:02;;;;;;;2.58;2.13;;;4.50;99.90;;;;;;5092376;28;20187;-63
2022/01/31 09:05:28;;;;;;;5.00;2.58;;;4.60;99.90;;;;;;5092556;28;20214;-63
2022/01/31 09:07:54;;;;;;;3.42;2.03;;;4.70;99.90;;;;;;5092346;28;20587;-62
2022/01/31 09:10:19;;;;;;;3.15;2.05;;;4.70;99.90;;;;;;5092374;28;20222;-63
2022/01/31 09:12:45;;;;;;;2.78;1.70;;;4.80;99.90;;;;;;5092319;28;20216;-63
2022/01/31 09:15:13;;;;;;;4.15;2.15;;;4.80;99.90;;;;;;5092213;28;20196;-63
2022/01/31 09:17:40;;;;;;;4.18;2.00;;;4.80;99.90;;;;;;5092371;28;20580;-63
2022/01/31 09:20:06;;;;;;;3.15;2.08;;;4.90;99.90;;;;;;5092201;28;20217;-63
2022/01/31 09:22:32;;;;;;;2.95;1.50;;;4.90;99.90;;;;;;5092336;28;20187;-63
2022/01/31 09:24:58;;;;;;;4.18;2.10;;;4.90;99.90;;;;;;5092232;28;20176;-63
2022/01/31 09:27:23;;;;;;;2.83;1.80;;;4.90;99.90;;;;;;5092326;28;20336;-63
2022/01/31 09:29:49;;;;;;;3.75;1.95;;;4.90;99.90;;;;;;5092038;28;20698;-63
2022/01/31 09:32:20;;;;;;;3.25;1.73;;;4.90;99.90;;;;;;5092122;28;20184;-64
2022/01/31 09:34:46;;;;;;;3.95;2.10;;;4.90;99.90;;;;;;5092231;28;20176;-64
2022/01/31 09:37:12;;;;;;;3.53;2.28;;;4.90;99.90;;;;;;5092094;28;20199;-63
2022/01/31 09:39:38;;;;;;;3.00;1.83;;;4.90;99.90;;;;;;5092080;28;20225;-63
2022/01/31 09:42:11;;;;;;;6.00;2.15;;;4.90;99.90;;;;;;5092171;28;20183;-63
2022/01/31 09:45:17;;;;;;;3.92;1.90;;;4.90;99.90;;;;;;5093113;28;20176;-63
2022/01/31 09:50:20;;;;;;;3.67;2.20;;;4.90;99.90;;;;;;5085400;28;20235;-63
2022/01/31 09:52:45;;;;;;;3.83;2.10;;;4.90;99.90;;;;;;5095857;28;20176;-63
2022/01/31 09:55:12;;;;;;;3.70;1.77;;;5.00;99.90;;;;;;5095816;28;20259;-64
2022/01/31 09:57:37;;;;;;;4.63;2.13;;;5.00;99.90;;;;;;5096012;28;20202;-63
2022/01/31 10:00:06;;;;;;;5.00;1.88;;;4.90;99.90;;;;;;5095673;28;20655;-63
2022/01/31 10:02:32;;;;;;;2.65;1.85;;;5.00;99.90;;;;;;5095730;28;20184;-63
2022/01/31 10:04:57;;;;;;;3.78;1.85;;;5.00;99.90;;;;;;5095570;28;20707;-63
2022/01/31 10:07:23;;;;;;;7.57;2.45;;;5.00;99.90;;;;;;5095513;28;20220;-63
2022/01/31 10:09:50;;;;;;;4.00;2.40;;;5.00;99.90;;;;;;5094186;28;20230;-64
2022/01/31 10:17:42;;;;;;;3.85;2.22;;;5.00;99.90;;;;;;5095773;28;20650;-63
2022/01/31 10:20:22;;;;;;;7.05;2.17;;;5.00;99.90;;;;;;5095496;28;20176;-63
2022/01/31 10:22:47;;;;;;;3.75;1.60;;;5.00;99.90;;;;;;5095330;28;20233;-63
2022/01/31 10:25:18;;;;;;;3.78;2.13;;;5.00;99.90;;;;;;5095249;28;20200;-63
2022/01/31 10:27:51;;;;;;;4.15;1.95;;;4.90;99.90;;;;;;5094130;28;20254;-63
2022/01/31 10:30:24;;;;;;;2.33;1.85;;;5.00;99.90;;;;;;5095239;28;20208;-63
2022/01/31 10:32:51;;;;;;;5.80;2.30;;;5.00;99.90;;;;;;5093793;28;20179;-63
2022/01/31 10:35:20;;;;;;;3.58;2.33;;;5.00;99.90;;;;;;5095161;28;20266;-63
2022/01/31 10:37:47;;;;;;;5.13;1.88;;;5.00;99.90;;;;;;5095011;28;20567;-63
2022/01/31 10:53:57;;;;;;;5.30;2.55;;;5.40;99.90;;;;;;5094819;28;20789;-63
2022/01/31 10:56:25;;;;;;;6.25;2.67;;;5.60;99.90;;;;;;5094243;28;20543;-63
2022/01/31 10:59:01;;;;;;;5.22;2.80;;;5.60;99.90;;;;;;5093208;28;20693;-63
2022/01/31 11:01:27;;;;;;;5.05;2.08;;;5.60;99.90;;;;;;5094613;28;20172;-63
2022/01/31 11:03:54;;;;;;;4.82;2.15;;;5.60;99.90;;;;;;5094400;28;20704;-63
2022/01/31 11:06:21;;;;;;;6.57;2.00;;;5.60;99.90;;;;;;5094446;28;20183;-63
2022/01/31 11:08:47;;;;;;;4.95;2.38;;;5.50;99.90;;;;;;5094323;28;20234;-64
2022/01/31 11:11:13;;;;;;;4.47;2.28;;;5.50;99.90;;;;;;5092941;28;20222;-63
2022/01/31 11:13:39;;;;;;;5.35;1.85;;;5.50;99.90;;;;;;5094450;28;20176;-63
2022/01/31 11:16:09;;;;;;;3.05;1.77;;;5.50;99.90;;;;;;5094195;28;20237;-63
2022/01/31 11:18:36;;;;;;;3.05;1.42;;;5.50;99.90;;;;;;5094396;28;20206;-63
2022/01/31 11:21:06;;;;;;;3.58;2.00;;;5.50;99.90;;;;;;5094132;28;20178;-63
2022/01/31 11:23:37;;;;;;;5.00;1.90;;;5.60;99.90;;;;;;5094168;28;20180;-62
2022/01/31 11:26:06;;;;;;;5.75;2.20;;;5.50;99.90;;;;;;5094050;28;20203;-63
2022/01/31 11:28:34;;;;;;;4.88;1.80;;;5.60;99.90;;;;;;5094028;28;20180;-63
2022/01/31 11:31:01;;;;;;;29.23;12.68;;;5.60;99.90;;;;;;5093826;28;20211;-64
2022/01/31 11:33:28;;;;;;;73.13;29.63;;;5.60;99.90;;;;;;5093962;28;20176;-63
2022/01/31 11:35:54;;;;;;;15.68;6.40;;;5.60;99.90;;;;;;5093839;28;20183;-62
2022/01/31 11:38:20;;;;;;;4.57;2.30;;;5.60;99.90;;;;;;5093979;28;20553;-63
2022/01/31 11:40:46;;;;;;;4.07;1.60;;;5.60;99.90;;;;;;5093837;28;20529;-63
2022/01/31 11:43:14;;;;;;;4.07;1.90;;;5.50;99.90;;;;;;5093761;28;20647;-63
2022/01/31 11:45:42;;;;;;;2.47;1.45;;;5.50;99.90;;;;;;5093753;28;20185;-64
2022/01/31 11:48:21;;;;;;;4.03;2.33;;;5.50;99.90;;;;;;5093471;28;20646;-63
2022/01/31 11:50:53;;;;;;;2.47;1.40;;;5.50;99.90;;;;;;5093518;28;20214;-63
2022/01/31 11:53:31;;;;;;;2.65;1.10;;;5.60;99.90;;;;;;5092573;28;20317;-63
2022/01/31 11:56:07;;;;;;;2.17;1.40;;;5.50;99.90;;;;;;5075352;28;20191;-63
2022/01/31 11:58:47;;;;;;;1.42;1.17;;;5.60;99.90;;;;;;5092249;28;20258;-63
2022/01/31 12:01:13;;;;;;;3.38;1.52;;;5.60;99.90;;;;;;5092360;28;20175;-63
2022/01/31 12:03:56;;;;;;;3.42;1.40;;;5.60;99.90;;;;;;5093489;28;20309;-63
2022/01/31 12:06:27;;;;;;;4.22;2.15;;;5.60;99.90;;;;;;5093460;28;20218;-63
2022/01/31 12:09:02;;;;;;;3.28;1.30;;;5.60;99.90;;;;;;5092385;28;20220;-63
2022/01/31 12:11:29;;;;;;;4.50;1.55;;;5.60;99.90;;;;;;5093277;28;20294;-63
2022/01/31 12:14:01;;;;;;;5.10;1.83;;;5.70;99.90;;;;;;5093154;28;20323;-63
2022/01/31 12:22:00;;;;;;;2.00;1.30;;;5.70;99.90;;;;;;5093041;28;20184;-63
2022/01/31 12:24:40;;;;;;;3.88;1.55;;;5.70;99.90;;;;;;5093114;28;20229;-63
2022/01/31 12:27:25;;;;;;;2.88;1.55;;;5.70;99.90;;;;;;5093256;28;20164;-63
2022/01/31 12:30:01;;;;;;;1.75;1.17;;;5.70;99.90;;;;;;5092770;28;20218;-63
2022/01/31 12:32:33;;;;;;;4.50;1.30;;;5.70;99.90;;;;;;5092978;28;20213;-63
2022/01/31 12:35:02;;;;;;;1.77;1.27;;;5.70;99.90;;;;;;5092856;28;20172;-63
2022/01/31 12:37:41;;;;;;;8.38;2.70;;;5.70;99.90;;;;;;5092739;28;20216;-62
2022/01/31 12:40:11;;;;;;;8.65;2.15;;;5.70;99.90;;;;;;5092685;28;20184;-63
2022/01/31 12:45:11;;;;;;;3.35;1.50;;;5.70;99.90;;;;;;5092743;28;20183;-62
2022/01/31 12:47:36;;;;;;;2.35;1.38;;;5.80;99.90;;;;;;5092678;28;20531;-62
2022/01/31 12:50:23;;;;;;;5.38;1.30;;;5.80;99.90;;;;;;5092516;28;20196;-63
2022/01/31 12:52:48;;;;;;;2.85;1.60;;;5.80;99.90;;;;;;5091345;28;20184;-64
2022/01/31 12:55:14;;;;;;;4.20;1.48;;;5.80;99.90;;;;;;5092720;28;20180;-63
2022/01/31 12:57:53;;;;;;;2.78;1.67;;;5.80;99.90;;;;;;5092651;28;20198;-63
2022/01/31 13:00:40;;;;;;;5.10;1.70;;;5.80;99.90;;;;;;5092668;28;20175;-63
2022/01/31 13:03:09;;;;;;;11.38;3.50;;;5.80;99.90;;;;;;5091192;28;20183;-63
2022/01/31 13:05:39;;;;;;;7.20;1.80;;;5.80;99.90;;;;;;5092547;28;20168;-63
2022/01/31 13:08:23;;;;;;;11.65;4.13;;;5.80;99.90;;;;;;5092167;28;20224;-63
2022/01/31 13:10:51;;;;;;;6.75;2.65;;;5.80;99.90;;;;;;5092193;28;20932;-63
2022/01/31 13:13:34;;;;;;;5.45;1.80;;;5.90;99.90;;;;;;5092528;28;20173;-64
2022/01/31 13:16:08;;;;;;;9.25;2.85;;;5.90;99.90;;;;;;5092380;28;20254;-63
2022/01/31 13:18:35;;;;;;;5.15;1.95;;;5.90;99.90;;;;;;5093254;28;20467;-62
2022/01/31 13:21:03;;;;;;;2.90;1.33;;;5.90;99.90;;;;;;5095209;28;20172;-63
2022/01/31 13:23:30;;;;;;;7.05;1.50;;;5.90;99.90;;;;;;5095360;28;20606;-63
2022/01/31 13:26:07;;;;;;;2.97;1.10;;;5.90;99.90;;;;;;5096376;28;20551;-63
2022/01/31 13:28:33;;;;;;;2.05;1.02;;;6.00;99.90;;;;;;5096434;28;20191;-62
2022/01/31 13:31:11;;;;;;;2.55;1.17;;;6.00;99.90;;;;;;5096250;28;20678;-63
2022/01/31 13:33:48;;;;;;;4.45;1.20;;;6.00;99.90;;;;;;5096255;28;20175;-63
2022/01/31 13:36:14;;;;;;;2.53;1.20;;;6.10;99.90;;;;;;5096308;28;20172;-63
2022/01/31 13:38:40;;;;;;;2.75;1.25;;;6.00;99.90;;;;;;5096254;28;20203;-63